Time;durP1;ratioP1;P1;durP2;ratioP2;P2;SDS_P1;SDS_P2;PMS_P1;PMS_P2;Temp;Humidity;BMP_temperature;BMP_pressure;BME280_temperature;BME280_humidity;BME280_pressure;Samples;Min_cycle;Max_cycle;Signal;HPM_P1;HPM_P2
2021/08/31 00:00:46;;;;;;;57.87;2.70;;;14.70;99.90;;;;;;5073493;28;20572;-69
2021/08/31 00:03:12;;;;;;;58.40;3.17;;;14.70;99.90;;;;;;5073730;28;20480;-69
2021/08/31 00:05:39;;;;;;;57.87;2.60;;;14.70;99.90;;;;;;5073745;28;20548;-69
2021/08/31 00:08:07;;;;;;;57.87;2.70;;;14.70;99.90;;;;;;5073494;28;20538;-69
2021/08/31 00:10:35;;;;;;;58.27;3.20;;;14.70;99.90;;;;;;5073594;28;20441;-69
2021/08/31 00:13:01;;;;;;;57.57;2.70;;;14.70;99.90;;;;;;5073638;28;20542;-69
2021/08/31 00:15:28;;;;;;;57.77;2.90;;;14.70;99.90;;;;;;5073473;28;20535;-69
2021/08/31 00:18:00;;;;;;;57.67;2.60;;;14.70;99.90;;;;;;5073489;28;20445;-69
2021/08/31 00:20:27;;;;;;;58.10;3.33;;;14.70;99.90;;;;;;5071910;28;20494;-69
2021/08/31 00:22:54;;;;;;;57.83;2.63;;;14.60;99.90;;;;;;5073994;28;20465;-70
2021/08/31 00:25:22;;;;;;;57.97;3.20;;;14.70;99.90;;;;;;5073465;28;21016;-69
2021/08/31 00:27:49;;;;;;;57.70;2.90;;;14.60;99.90;;;;;;5073581;28;20445;-69
2021/08/31 00:30:16;;;;;;;57.90;2.70;;;14.60;99.90;;;;;;5073035;28;20442;-71
2021/08/31 00:32:43;;;;;;;57.90;2.80;;;14.60;99.90;;;;;;5073223;28;20465;-69
2021/08/31 00:35:11;;;;;;;57.90;2.70;;;14.60;99.90;;;;;;5073046;28;20451;-69
2021/08/31 00:37:37;;;;;;;57.80;2.70;;;14.60;99.90;;;;;;5073180;28;20533;-69
2021/08/31 00:40:06;;;;;;;57.97;3.03;;;14.50;99.90;;;;;;5072831;28;20488;-69
2021/08/31 00:42:34;;;;;;;58.20;3.27;;;14.50;99.90;;;;;;5072987;28;20472;-69
2021/08/31 00:45:01;;;;;;;57.80;2.87;;;14.50;99.90;;;;;;5073027;28;21028;-69
2021/08/31 00:47:28;;;;;;;58.40;2.83;;;14.50;99.90;;;;;;5073296;28;20558;-68
2021/08/31 00:49:54;;;;;;;57.57;2.53;;;14.50;99.90;;;;;;5072556;28;20452;-68
2021/08/31 00:52:22;;;;;;;58.50;3.77;;;14.50;99.90;;;;;;5072923;28;20508;-68
2021/08/31 00:54:49;;;;;;;58.10;2.93;;;14.50;99.90;;;;;;5072894;28;20519;-69
2021/08/31 00:57:16;;;;;;;57.53;2.70;;;14.50;99.90;;;;;;5072760;28;20445;-69
2021/08/31 00:59:45;;;;;;;57.67;2.90;;;14.50;99.90;;;;;;5072421;28;20512;-70
2021/08/31 01:02:11;;;;;;;57.73;2.40;;;14.50;99.90;;;;;;5072410;28;20623;-70
2021/08/31 01:04:38;;;;;;;57.63;2.57;;;14.40;99.90;;;;;;5072502;28;20544;-70
2021/08/31 01:07:06;;;;;;;57.70;2.50;;;14.40;99.90;;;;;;5072564;28;20448;-70
2021/08/31 01:09:34;;;;;;;58.07;2.90;;;14.40;99.90;;;;;;5072599;28;20528;-70
2021/08/31 01:12:01;;;;;;;57.67;2.53;;;14.40;99.90;;;;;;5072869;28;20855;-70
2021/08/31 01:14:28;;;;;;;58.10;2.93;;;14.40;99.90;;;;;;5072404;28;20450;-70
2021/08/31 01:16:56;;;;;;;57.77;2.90;;;14.40;99.90;;;;;;5072246;28;20445;-70
2021/08/31 01:19:29;;;;;;;57.57;2.57;;;14.40;99.90;;;;;;5072186;28;20804;-69
2021/08/31 01:21:59;;;;;;;57.80;2.90;;;14.50;99.90;;;;;;5072538;28;20467;-69
2021/08/31 01:24:26;;;;;;;57.80;2.70;;;14.50;99.90;;;;;;5072407;28;20901;-70
2021/08/31 01:26:55;;;;;;;57.97;2.57;;;14.50;99.90;;;;;;5072179;28;20982;-70
2021/08/31 01:29:22;;;;;;;58.60;2.87;;;14.50;99.90;;;;;;5071782;28;21045;-70
2021/08/31 01:31:48;;;;;;;57.73;2.90;;;14.50;99.90;;;;;;5071757;28;20446;-70
2021/08/31 01:34:15;;;;;;;58.10;3.00;;;14.50;99.90;;;;;;5072286;28;20449;-69
2021/08/31 01:36:42;;;;;;;57.77;2.70;;;14.60;99.90;;;;;;5072194;28;20451;-70
2021/08/31 01:39:09;;;;;;;57.57;2.37;;;14.60;99.90;;;;;;5071821;28;20527;-69
2021/08/31 01:41:36;;;;;;;57.87;2.83;;;14.50;99.90;;;;;;5072067;28;20862;-70
2021/08/31 01:44:05;;;;;;;57.77;2.50;;;14.60;99.90;;;;;;5071841;28;20451;-69
2021/08/31 01:46:32;;;;;;;57.83;2.40;;;14.60;99.90;;;;;;5072115;28;20451;-70
2021/08/31 01:48:59;;;;;;;57.90;3.30;;;14.60;99.90;;;;;;5072081;28;20542;-70
2021/08/31 01:51:26;;;;;;;57.87;2.80;;;14.60;99.90;;;;;;5071881;28;20441;-70
2021/08/31 01:53:54;;;;;;;58.40;3.27;;;14.60;99.90;;;;;;5069994;28;20467;-69
2021/08/31 01:56:20;;;;;;;58.37;3.30;;;14.60;99.90;;;;;;5071736;28;20549;-69
2021/08/31 01:58:47;;;;;;;57.90;2.70;;;14.60;99.90;;;;;;5071773;28;20536;-69
2021/08/31 02:01:15;;;;;;;57.87;2.60;;;14.50;99.90;;;;;;5071595;28;20576;-70
2021/08/31 02:03:42;;;;;;;58.30;3.23;;;14.50;99.90;;;;;;5071604;28;21033;-70
2021/08/31 02:06:09;;;;;;;57.60;2.60;;;14.50;99.90;;;;;;5071664;28;20446;-70
2021/08/31 02:08:36;;;;;;;57.53;2.60;;;14.50;99.90;;;;;;5071843;28;20488;-69
2021/08/31 02:11:03;;;;;;;58.23;3.37;;;14.40;99.90;;;;;;5071613;28;20445;-70
2021/08/31 02:13:30;;;;;;;57.87;2.97;;;14.40;99.90;;;;;;5071883;28;20912;-69
2021/08/31 02:15:57;;;;;;;58.17;3.10;;;14.40;99.90;;;;;;5071632;28;20452;-70
2021/08/31 02:18:25;;;;;;;57.77;2.50;;;14.40;99.90;;;;;;5071737;28;20527;-69
2021/08/31 02:20:52;;;;;;;57.60;2.60;;;14.30;99.90;;;;;;5071339;28;20828;-69
2021/08/31 02:23:19;;;;;;;57.53;2.40;;;14.30;99.90;;;;;;5071812;28;20467;-70
2021/08/31 02:25:45;;;;;;;57.63;2.57;;;14.30;99.90;;;;;;5071882;28;20553;-69
2021/08/31 02:28:12;;;;;;;57.77;3.10;;;14.30;99.90;;;;;;5071624;28;20476;-70
2021/08/31 02:30:39;;;;;;;57.93;2.83;;;14.30;99.90;;;;;;5071380;28;20444;-69
2021/08/31 02:33:06;;;;;;;57.80;2.70;;;14.30;99.90;;;;;;5071399;28;20551;-70
2021/08/31 02:35:34;;;;;;;57.80;2.50;;;14.30;99.90;;;;;;5071810;28;20449;-70
2021/08/31 02:38:01;;;;;;;57.80;2.80;;;14.30;99.90;;;;;;5071373;28;20995;-70
2021/08/31 02:40:28;;;;;;;58.70;3.37;;;14.20;99.90;;;;;;5071281;28;20495;-70
2021/08/31 02:42:55;;;;;;;57.70;2.60;;;14.20;99.90;;;;;;5071485;28;20500;-70
2021/08/31 02:45:21;;;;;;;57.97;2.80;;;14.20;99.90;;;;;;5075220;28;20506;-70
2021/08/31 02:47:48;;;;;;;57.90;2.83;;;14.20;99.90;;;;;;5075310;28;20483;-70
2021/08/31 02:50:15;;;;;;;57.83;2.40;;;14.20;99.90;;;;;;5075286;28;20818;-70
2021/08/31 02:52:45;;;;;;;57.67;2.60;;;14.20;99.90;;;;;;5075143;28;20469;-70
2021/08/31 02:55:12;;;;;;;57.90;3.40;;;14.20;99.90;;;;;;5075128;28;20444;-69
2021/08/31 02:57:39;;;;;;;57.57;2.50;;;14.20;99.90;;;;;;5075248;28;20546;-70
2021/08/31 03:00:07;;;;;;;57.57;2.40;;;14.20;99.90;;;;;;5074651;28;20530;-70
2021/08/31 03:02:34;;;;;;;57.57;2.57;;;14.20;99.90;;;;;;5074597;28;20556;-70
2021/08/31 03:05:01;;;;;;;57.67;2.43;;;14.20;99.90;;;;;;5075131;28;20457;-70
2021/08/31 03:07:28;;;;;;;57.70;2.70;;;14.30;99.90;;;;;;5074965;28;20480;-70
2021/08/31 03:09:56;;;;;;;57.67;2.47;;;14.30;99.90;;;;;;5074605;28;20889;-70
2021/08/31 03:12:24;;;;;;;57.87;2.67;;;14.30;99.90;;;;;;5074848;28;20539;-69
2021/08/31 03:14:52;;;;;;;58.67;3.63;;;14.30;99.90;;;;;;5074641;28;20526;-70
2021/08/31 03:17:18;;;;;;;57.87;2.77;;;14.30;99.90;;;;;;5074914;28;20455;-69
2021/08/31 03:19:45;;;;;;;58.30;4.20;;;14.40;99.90;;;;;;5074548;28;20449;-69
2021/08/31 03:22:12;;;;;;;57.97;2.80;;;14.40;99.90;;;;;;5074367;28;20484;-70
2021/08/31 03:24:39;;;;;;;59.17;4.10;;;14.30;99.90;;;;;;5074576;28;20458;-69
2021/08/31 03:27:08;;;;;;;57.90;3.07;;;14.30;99.90;;;;;;5074404;28;20475;-70
2021/08/31 03:29:35;;;;;;;57.90;2.70;;;14.30;99.90;;;;;;5074025;28;20445;-70
2021/08/31 03:32:02;;;;;;;57.83;3.00;;;14.30;99.90;;;;;;5074329;28;20460;-70
2021/08/31 03:34:29;;;;;;;57.53;2.60;;;14.30;99.90;;;;;;5074318;28;20452;-70
2021/08/31 03:36:56;;;;;;;57.77;2.60;;;14.40;99.90;;;;;;5074370;28;20872;-70
2021/08/31 03:39:23;;;;;;;58.00;2.77;;;14.40;99.90;;;;;;5074060;28;20536;-69
2021/08/31 03:41:50;;;;;;;57.57;2.70;;;14.30;99.90;;;;;;5074099;28;20571;-70
2021/08/31 03:44:18;;;;;;;58.67;3.20;;;14.30;99.90;;;;;;5074761;28;20531;-69
2021/08/31 03:46:45;;;;;;;57.53;2.50;;;14.30;99.90;;;;;;5074288;28;20488;-70
2021/08/31 03:49:11;;;;;;;57.67;2.60;;;14.40;99.90;;;;;;5073941;28;20535;-69
2021/08/31 03:51:38;;;;;;;59.03;3.57;;;14.40;99.90;;;;;;5074024;28;20476;-69
2021/08/31 03:54:05;;;;;;;58.30;3.10;;;14.40;99.90;;;;;;5074293;28;20525;-70
2021/08/31 03:56:32;;;;;;;57.57;2.53;;;14.40;99.90;;;;;;5073701;28;20479;-69
2021/08/31 03:58:59;;;;;;;57.90;2.60;;;14.40;99.90;;;;;;5074097;28;20451;-70
2021/08/31 04:01:27;;;;;;;57.67;2.60;;;14.40;99.90;;;;;;5073566;28;20581;-70
2021/08/31 04:03:54;;;;;;;57.97;2.60;;;14.30;99.90;;;;;;5073602;28;21026;-70
2021/08/31 04:06:21;;;;;;;58.00;2.90;;;14.40;99.90;;;;;;5073725;28;20484;-70
2021/08/31 04:08:48;;;;;;;58.00;2.60;;;14.30;99.90;;;;;;5073679;28;20452;-70
2021/08/31 04:11:15;;;;;;;57.70;2.47;;;14.40;99.90;;;;;;5073907;28;20448;-70
2021/08/31 04:13:41;;;;;;;57.90;2.80;;;14.40;99.90;;;;;;5074053;28;20505;-69
2021/08/31 04:16:08;;;;;;;58.10;3.00;;;14.30;99.90;;;;;;5073845;28;20478;-70
2021/08/31 04:18:36;;;;;;;57.53;2.67;;;14.30;99.90;;;;;;5073433;28;20445;-70
2021/08/31 04:21:03;;;;;;;57.97;2.70;;;14.30;99.90;;;;;;5073100;28;20566;-69
2021/08/31 04:23:30;;;;;;;58.03;2.70;;;14.30;99.90;;;;;;5073503;28;20555;-69
2021/08/31 04:25:57;;;;;;;57.87;2.60;;;14.40;99.90;;;;;;5073189;28;20444;-69
2021/08/31 04:28:24;;;;;;;59.10;3.43;;;14.40;99.90;;;;;;5073518;28;20887;-69
2021/08/31 04:30:50;;;;;;;57.77;2.83;;;14.40;99.90;;;;;;5073052;28;20450;-70
2021/08/31 04:33:17;;;;;;;58.27;3.50;;;14.40;99.90;;;;;;5073096;28;21059;-69
2021/08/31 04:35:46;;;;;;;57.73;2.80;;;14.30;99.90;;;;;;5073273;28;20451;-70
2021/08/31 04:38:13;;;;;;;57.47;2.50;;;14.30;99.90;;;;;;5073006;28;20457;-69
2021/08/31 04:40:40;;;;;;;58.10;3.43;;;14.40;99.90;;;;;;5073278;28;20449;-70
2021/08/31 04:43:07;;;;;;;58.10;2.80;;;14.40;99.90;;;;;;5073283;28;20559;-69
2021/08/31 04:45:34;;;;;;;57.87;3.33;;;14.40;99.90;;;;;;5073091;28;20586;-70
2021/08/31 04:48:01;;;;;;;57.70;2.60;;;14.40;99.90;;;;;;5072980;28;20996;-70
2021/08/31 04:50:28;;;;;;;57.70;2.70;;;14.30;99.90;;;;;;5072539;28;20450;-69
2021/08/31 04:52:56;;;;;;;57.67;2.43;;;14.40;99.90;;;;;;5072690;28;20557;-70
2021/08/31 04:55:23;;;;;;;57.90;3.33;;;14.40;99.90;;;;;;5072931;28;20554;-70
2021/08/31 04:57:49;;;;;;;57.83;2.60;;;14.40;99.90;;;;;;5073026;28;20448;-69
2021/08/31 05:00:17;;;;;;;57.80;2.60;;;14.40;99.90;;;;;;5072600;28;20531;-70
2021/08/31 05:02:44;;;;;;;57.70;2.80;;;14.40;99.90;;;;;;5072552;28;20494;-69
2021/08/31 05:05:11;;;;;;;57.77;2.70;;;14.30;99.90;;;;;;5072768;28;20547;-69
2021/08/31 05:07:38;;;;;;;57.77;2.50;;;14.40;99.90;;;;;;5071922;28;20540;-70
2021/08/31 05:10:08;;;;;;;58.37;4.23;;;14.40;99.90;;;;;;5072548;28;20459;-70
2021/08/31 05:12:35;;;;;;;58.60;3.60;;;14.40;99.90;;;;;;5072624;28;20547;-69
2021/08/31 05:15:02;;;;;;;58.30;3.80;;;14.40;99.90;;;;;;5072629;28;20453;-70
2021/08/31 05:17:29;;;;;;;57.63;3.10;;;14.40;99.90;;;;;;5072322;28;20452;-69
2021/08/31 05:19:57;;;;;;;58.37;3.07;;;14.50;99.90;;;;;;5071878;28;20530;-70
2021/08/31 05:22:25;;;;;;;57.97;2.80;;;14.50;99.90;;;;;;5072494;28;20916;-69
2021/08/31 05:24:53;;;;;;;58.00;2.60;;;14.40;99.90;;;;;;5072346;28;20443;-70
2021/08/31 05:27:22;;;;;;;57.73;3.20;;;14.40;99.90;;;;;;5072294;28;21094;-69
2021/08/31 05:29:49;;;;;;;58.30;3.37;;;14.50;99.90;;;;;;5071939;28;20831;-70
2021/08/31 05:32:16;;;;;;;57.90;2.70;;;14.50;99.90;;;;;;5072123;28;20466;-69
2021/08/31 05:34:43;;;;;;;57.93;3.33;;;14.50;99.90;;;;;;5072109;28;20451;-69
2021/08/31 05:37:10;;;;;;;58.37;3.43;;;14.50;99.90;;;;;;5072316;28;20488;-70
2021/08/31 05:39:37;;;;;;;57.73;2.50;;;14.60;99.90;;;;;;5072054;28;20450;-69
2021/08/31 05:42:06;;;;;;;57.77;2.70;;;14.60;99.90;;;;;;5072233;28;20487;-69
2021/08/31 05:44:36;;;;;;;57.67;2.50;;;14.60;99.90;;;;;;5072091;28;20536;-69
2021/08/31 05:47:04;;;;;;;57.97;2.83;;;14.70;99.90;;;;;;5071818;28;20454;-70
2021/08/31 05:49:31;;;;;;;57.97;3.17;;;14.70;99.90;;;;;;5071713;28;20488;-70
2021/08/31 05:51:58;;;;;;;58.07;3.00;;;14.80;99.90;;;;;;5072119;28;20469;-70
2021/08/31 05:54:26;;;;;;;57.80;2.80;;;14.80;99.50;;;;;;5072114;28;20535;-69
2021/08/31 05:56:53;;;;;;;57.80;2.57;;;14.70;99.00;;;;;;5072471;28;20832;-70
2021/08/31 05:59:20;;;;;;;57.73;3.00;;;14.70;98.90;;;;;;5071558;28;20964;-70
2021/08/31 06:01:48;;;;;;;57.93;2.90;;;14.80;98.70;;;;;;5071658;28;20606;-69
2021/08/31 06:04:16;;;;;;;58.07;3.20;;;14.80;98.40;;;;;;5072016;28;20881;-70
2021/08/31 06:06:43;;;;;;;58.00;2.90;;;14.80;98.00;;;;;;5071959;28;20479;-69
2021/08/31 06:09:10;;;;;;;58.77;5.07;;;14.80;97.80;;;;;;5071737;28;20472;-69
2021/08/31 06:11:38;;;;;;;58.20;2.87;;;14.90;97.20;;;;;;5071979;28;20451;-69
2021/08/31 06:14:06;;;;;;;57.90;2.80;;;14.90;96.40;;;;;;5071789;28;20494;-69
2021/08/31 06:16:33;;;;;;;57.67;2.60;;;14.90;95.40;;;;;;5071598;28;21019;-69
2021/08/31 06:19:01;;;;;;;57.77;2.77;;;15.00;99.90;;;;;;5074793;28;20548;-69
2021/08/31 06:21:29;;;;;;;57.83;2.60;;;15.10;93.90;;;;;;5075816;28;20490;-70
2021/08/31 06:23:56;;;;;;;57.50;2.93;;;15.10;93.40;;;;;;5076134;28;20475;-70
2021/08/31 06:26:22;;;;;;;57.87;2.93;;;15.20;93.50;;;;;;5075644;28;20536;-70
2021/08/31 06:28:49;;;;;;;58.23;3.33;;;15.30;93.30;;;;;;5075502;28;20979;-67
2021/08/31 06:31:16;;;;;;;58.10;3.13;;;15.30;92.60;;;;;;5075432;28;20807;-67
2021/08/31 06:33:45;;;;;;;58.10;3.10;;;15.40;92.30;;;;;;5075350;28;20523;-67
2021/08/31 06:36:14;;;;;;;58.13;3.40;;;15.50;92.10;;;;;;5075250;28;20942;-69
2021/08/31 06:38:40;;;;;;;58.00;3.00;;;15.60;89.60;;;;;;5075556;28;20456;-67
2021/08/31 06:41:07;;;;;;;57.80;2.40;;;15.70;85.20;;;;;;5075005;28;20490;-67
2021/08/31 06:43:34;;;;;;;58.13;3.13;;;15.80;78.90;;;;;;5075404;28;20544;-67
2021/08/31 06:46:01;;;;;;;58.27;3.20;;;15.80;76.40;;;;;;5075193;28;20457;-69
2021/08/31 06:48:28;;;;;;;58.07;3.23;;;15.90;73.70;;;;;;5075392;28;20868;-69
2021/08/31 06:50:55;;;;;;;58.23;3.20;;;16.00;66.30;;;;;;5075363;28;20541;-68
2021/08/31 06:53:23;;;;;;;58.00;2.70;;;16.00;62.20;;;;;;5076187;28;20982;-69
2021/08/31 06:55:50;;;;;;;58.10;3.23;;;16.00;61.20;;;;;;5075257;28;20482;-68
2021/08/31 06:58:17;;;;;;;57.67;2.50;;;16.10;55.60;;;;;;5075235;28;20878;-68
2021/08/31 07:00:44;;;;;;;58.27;3.23;;;16.10;50.70;;;;;;5074797;28;20477;-68
2021/08/31 07:03:11;;;;;;;58.27;3.53;;;16.20;47.40;;;;;;5074731;28;20870;-68
2021/08/31 07:05:38;;;;;;;58.47;3.27;;;16.30;49.10;;;;;;5074907;28;20533;-68
2021/08/31 07:08:05;;;;;;;57.87;3.20;;;16.50;46.20;;;;;;5074783;28;20477;-68
2021/08/31 07:10:33;;;;;;;57.80;2.60;;;16.60;53.50;;;;;;5074434;28;20485;-68
2021/08/31 07:13:00;;;;;;;58.47;3.13;;;16.60;42.00;;;;;;5074770;28;20553;-68
2021/08/31 07:15:27;;;;;;;57.83;2.70;;;16.70;22.40;;;;;;5074787;28;20507;-68
2021/08/31 07:17:54;;;;;;;57.37;2.70;;;16.80;15.80;;;;;;5074664;28;20526;-68
2021/08/31 07:20:21;;;;;;;57.90;2.90;;;16.90;10.90;;;;;;5074347;28;20811;-68
2021/08/31 07:22:48;;;;;;;57.67;2.80;;;17.00;6.30;;;;;;5074334;28;20514;-68
2021/08/31 07:25:14;;;;;;;57.93;2.60;;;17.10;8.20;;;;;;5074529;28;20561;-68
2021/08/31 07:27:43;;;;;;;58.20;3.03;;;17.10;1.00;;;;;;5074556;28;20533;-68
2021/08/31 07:30:11;;;;;;;58.97;2.97;;;17.20;1.00;;;;;;5073566;28;20485;-69
2021/08/31 07:32:37;;;;;;;58.10;3.37;;;17.10;1.00;;;;;;5074874;28;20547;-69
2021/08/31 07:35:05;;;;;;;58.07;3.03;;;17.10;1.00;;;;;;5074741;28;20452;-68
2021/08/31 07:37:32;;;;;;;58.17;2.77;;;17.00;1.00;;;;;;5074257;28;20450;-69
2021/08/31 07:39:59;;;;;;;58.07;2.97;;;16.90;1.00;;;;;;5074687;28;20450;-69
2021/08/31 07:42:26;;;;;;;58.70;3.37;;;16.90;1.00;;;;;;5074281;28;20870;-68
2021/08/31 07:44:54;;;;;;;57.77;2.70;;;16.80;1.00;;;;;;5074318;28;20475;-68
2021/08/31 07:47:21;;;;;;;57.57;2.40;;;16.80;1.00;;;;;;5074111;28;20446;-68
2021/08/31 07:49:48;;;;;;;57.97;3.27;;;16.70;1.00;;;;;;5073835;28;20533;-68
2021/08/31 07:52:15;;;;;;;57.77;2.40;;;16.70;1.00;;;;;;5074212;28;20557;-68
2021/08/31 07:54:41;;;;;;;58.37;2.77;;;16.70;1.00;;;;;;5074273;28;20550;-68
2021/08/31 07:57:08;;;;;;;58.40;3.20;;;16.70;1.00;;;;;;5073920;28;21013;-68
2021/08/31 07:59:35;;;;;;;58.60;3.30;;;16.80;1.00;;;;;;5073742;28;20566;-68
2021/08/31 08:02:04;;;;;;;57.87;3.33;;;16.90;1.00;;;;;;5073819;28;20489;-68
2021/08/31 08:04:31;;;;;;;57.87;2.77;;;17.00;1.00;;;;;;5073960;28;20459;-68
2021/08/31 08:06:58;;;;;;;58.00;2.80;;;17.20;1.00;;;;;;5074391;28;20478;-68
2021/08/31 08:09:25;;;;;;;58.80;2.90;;;17.30;1.00;;;;;;5073938;28;20450;-68
2021/08/31 08:11:52;;;;;;;59.40;4.90;;;17.40;1.00;;;;;;5074761;28;20489;-68
2021/08/31 08:14:19;;;;;;;58.07;3.00;;;17.40;1.00;;;;;;5074298;28;20479;-69
2021/08/31 08:16:46;;;;;;;58.00;3.00;;;17.50;1.00;;;;;;5074416;28;20533;-68
2021/08/31 08:19:14;;;;;;;57.30;2.87;;;17.50;1.00;;;;;;5073725;28;20443;-68
2021/08/31 08:21:41;;;;;;;57.87;2.63;;;17.40;1.00;;;;;;5074081;28;20541;-68
2021/08/31 08:24:09;;;;;;;58.07;2.60;;;17.30;1.00;;;;;;5074318;28;20543;-68
2021/08/31 08:26:36;;;;;;;57.57;2.50;;;17.30;1.00;;;;;;5074136;28;20462;-68
2021/08/31 08:29:03;;;;;;;57.53;2.53;;;17.40;1.00;;;;;;5074227;28;20530;-69
2021/08/31 08:31:32;;;;;;;57.93;2.83;;;17.60;1.00;;;;;;5073943;28;20453;-68
2021/08/31 08:33:59;;;;;;;57.87;2.50;;;17.80;1.00;;;;;;5074053;28;20467;-69
2021/08/31 08:36:27;;;;;;;58.10;2.70;;;17.90;1.00;;;;;;5074236;28;20875;-69
2021/08/31 08:38:54;;;;;;;57.63;2.63;;;18.00;1.00;;;;;;5074082;28;20549;-69
2021/08/31 08:41:21;;;;;;;59.13;2.40;;;18.20;1.00;;;;;;5072269;28;20874;-69
2021/08/31 08:43:49;;;;;;;58.07;3.43;;;18.40;1.00;;;;;;5073604;28;20574;-69
2021/08/31 08:46:16;;;;;;;57.90;3.10;;;18.50;1.00;;;;;;5073707;28;20486;-69
2021/08/31 08:48:47;;;;;;;57.77;3.40;;;18.60;1.00;;;;;;5074076;28;20450;-69
2021/08/31 08:51:14;;;;;;;57.47;2.87;;;18.70;1.00;;;;;;5073242;28;20939;-69
2021/08/31 08:53:42;;;;;;;58.07;2.43;;;18.80;1.00;;;;;;5073101;28;20559;-69
2021/08/31 08:56:09;;;;;;;57.87;3.03;;;19.00;1.00;;;;;;5073088;28;20542;-69
2021/08/31 08:58:36;;;;;;;57.37;2.53;;;19.00;1.00;;;;;;5073171;28;20530;-69
2021/08/31 09:01:06;;;;;;;58.20;2.80;;;19.10;1.00;;;;;;5072616;28;20459;-69
2021/08/31 09:03:35;;;;;;;57.87;2.60;;;19.20;1.00;;;;;;5072569;28;20586;-69
2021/08/31 09:06:07;;;;;;;57.40;2.67;;;19.20;1.00;;;;;;5072937;28;20953;-70
2021/08/31 09:08:35;;;;;;;58.37;3.23;;;19.20;1.00;;;;;;5072677;28;20979;-70
2021/08/31 09:11:18;;;;;;;58.57;3.17;;;19.10;1.00;;;;;;5072372;28;20950;-69
2021/08/31 09:13:45;;;;;;;57.83;2.80;;;19.00;1.00;;;;;;5072504;28;20893;-70
2021/08/31 09:16:35;;;;;;;58.20;2.50;;;19.00;1.00;;;;;;5072733;28;20474;-70
2021/08/31 09:19:02;;;;;;;57.87;2.40;;;19.00;1.00;;;;;;5057416;28;20548;-70
2021/08/31 09:21:30;;;;;;;58.10;2.80;;;19.00;1.00;;;;;;5072402;28;20476;-70
2021/08/31 09:23:58;;;;;;;57.67;2.47;;;19.00;1.00;;;;;;5072701;28;20574;-69
2021/08/31 09:26:38;;;;;;;57.97;2.50;;;19.10;1.00;;;;;;5072636;28;20858;-70
2021/08/31 09:29:16;;;;;;;58.50;3.10;;;19.10;1.00;;;;;;5072306;28;20451;-70
2021/08/31 09:31:51;;;;;;;58.17;2.60;;;19.00;1.00;;;;;;5072257;28;20487;-71
2021/08/31 09:34:48;;;;;;;58.70;3.50;;;19.00;1.00;;;;;;5072478;28;20449;-69
2021/08/31 09:37:33;;;;;;;58.63;3.10;;;18.90;1.00;;;;;;5010601;28;20445;-70
2021/08/31 09:40:02;;;;;;;58.50;3.40;;;18.80;1.00;;;;;;5065341;28;20469;-70
2021/08/31 09:42:30;;;;;;;57.80;2.77;;;18.80;1.00;;;;;;5072226;28;20579;-70
2021/08/31 09:45:01;;;;;;;57.87;2.40;;;18.70;1.00;;;;;;5072935;28;20449;-69
2021/08/31 09:47:34;;;;;;;58.13;2.97;;;18.60;1.00;;;;;;5073154;28;20530;-71
2021/08/31 09:50:02;;;;;;;58.57;2.93;;;18.60;1.00;;;;;;5073387;28;20488;-70
2021/08/31 09:52:29;;;;;;;57.57;2.50;;;18.60;1.00;;;;;;5073524;28;20461;-70
2021/08/31 09:54:56;;;;;;;57.80;2.30;;;18.50;1.00;;;;;;5073346;28;20500;-70
2021/08/31 09:57:29;;;;;;;58.07;2.93;;;18.50;1.00;;;;;;5073685;28;20876;-70
2021/08/31 09:59:58;;;;;;;57.87;2.47;;;18.50;1.00;;;;;;5073125;28;20538;-70
2021/08/31 10:02:26;;;;;;;57.97;2.60;;;18.50;1.00;;;;;;5073421;28;20928;-70
2021/08/31 10:04:53;;;;;;;57.67;2.40;;;18.40;1.00;;;;;;5074370;28;20546;-70
2021/08/31 10:07:22;;;;;;;58.00;2.47;;;18.50;1.00;;;;;;5073620;28;20975;-70
2021/08/31 10:09:50;;;;;;;57.87;2.33;;;18.40;1.00;;;;;;5075341;28;20486;-69
2021/08/31 10:12:20;;;;;;;57.80;2.50;;;18.50;1.00;;;;;;5075923;28;20572;-70
2021/08/31 10:14:51;;;;;;;58.50;2.60;;;18.60;1.00;;;;;;5074805;28;20448;-71
2021/08/31 10:17:22;;;;;;;58.40;4.20;;;18.60;1.00;;;;;;5075400;28;20992;-70
2021/08/31 10:19:51;;;;;;;58.10;2.70;;;18.60;1.00;;;;;;5075323;28;20528;-71
2021/08/31 10:22:18;;;;;;;57.37;2.30;;;18.80;1.00;;;;;;5076118;28;20477;-71
2021/08/31 10:24:46;;;;;;;57.77;2.60;;;18.80;1.00;;;;;;5076472;28;20472;-70
2021/08/31 10:27:34;;;;;;;57.73;2.40;;;18.90;1.00;;;;;;5075526;28;20528;-71
2021/08/31 10:30:30;;;;;;;57.67;2.33;;;19.10;1.00;;;;;;5076427;28;20476;-71
2021/08/31 10:33:00;;;;;;;58.10;3.03;;;19.30;1.00;;;;;;5074335;28;21023;-71
2021/08/31 10:35:56;;;;;;;57.67;2.57;;;19.40;1.00;;;;;;5076275;28;20492;-71
2021/08/31 10:38:46;;;;;;;57.90;2.87;;;19.40;1.00;;;;;;5075272;28;20535;-70
2021/08/31 10:41:49;;;;;;;57.63;2.50;;;19.50;1.00;;;;;;5073911;28;20439;-71
2021/08/31 10:44:40;;;;;;;59.07;2.50;;;19.50;1.00;;;;;;5073818;28;20560;-71
2021/08/31 10:47:32;;;;;;;57.87;2.60;;;19.70;1.00;;;;;;5072748;28;20842;-71
2021/08/31 10:50:17;;;;;;;58.10;2.83;;;19.80;1.00;;;;;;5057494;28;20457;-71
2021/08/31 10:52:48;;;;;;;57.67;2.60;;;19.90;1.00;;;;;;5073353;28;20978;-72
2021/08/31 10:55:41;;;;;;;57.50;2.83;;;20.00;1.00;;;;;;5072860;28;20444;-70
2021/08/31 10:58:11;;;;;;;58.00;3.00;;;20.10;1.00;;;;;;5072726;28;20450;-72
2021/08/31 11:00:53;;;;;;;57.67;2.53;;;20.20;1.00;;;;;;5072568;28;20470;-71
2021/08/31 11:03:41;;;;;;;57.57;2.67;;;20.40;1.00;;;;;;5072969;28;20491;-71
2021/08/31 11:06:27;;;;;;;57.90;2.50;;;20.70;1.00;;;;;;5076159;28;20463;-71
2021/08/31 11:09:15;;;;;;;57.87;2.40;;;21.00;1.00;;;;;;5076362;28;20450;-72
2021/08/31 11:11:44;;;;;;;57.87;3.03;;;21.10;1.00;;;;;;5076424;28;20530;-69
2021/08/31 11:14:13;;;;;;;58.10;2.50;;;21.60;1.00;;;;;;5078205;28;20533;-69
2021/08/31 11:16:40;;;;;;;58.20;2.67;;;22.40;1.00;;;;;;5078751;28;20448;-69
2021/08/31 11:19:25;;;;;;;57.67;2.60;;;23.40;1.00;;;;;;5078999;28;20538;-70
2021/08/31 11:21:55;;;;;;;57.77;2.30;;;25.10;1.00;;;;;;5079120;28;20970;-71
2021/08/31 11:24:22;;;;;;;57.97;2.30;;;26.20;1.00;;;;;;5077904;28;20543;-70
2021/08/31 11:26:49;;;;;;;58.13;2.77;;;26.00;1.00;;;;;;5079072;28;20451;-71
2021/08/31 11:29:16;;;;;;;58.20;2.70;;;25.20;1.00;;;;;;5078083;28;20510;-70
2021/08/31 11:31:43;;;;;;;58.17;2.60;;;24.40;1.00;;;;;;5077920;28;20953;-71
2021/08/31 11:34:13;;;;;;;58.30;2.70;;;23.80;1.00;;;;;;5077341;28;20454;-71
2021/08/31 11:36:43;;;;;;;58.40;2.93;;;23.20;1.00;;;;;;5079447;28;20447;-71
2021/08/31 11:39:15;;;;;;;58.20;2.63;;;22.60;1.00;;;;;;5079318;28;20475;-70
2021/08/31 11:41:44;;;;;;;59.30;3.47;;;22.30;1.00;;;;;;5079481;28;20455;-71
2021/08/31 11:44:15;;;;;;;58.10;2.60;;;22.00;1.00;;;;;;5080267;28;20930;-71
2021/08/31 11:46:44;;;;;;;58.50;2.50;;;21.70;1.00;;;;;;5078778;28;20439;-71
2021/08/31 11:49:15;;;;;;;58.70;3.77;;;21.60;1.00;;;;;;5079442;28;20574;-70
2021/08/31 11:51:43;;;;;;;57.97;2.50;;;21.50;1.00;;;;;;5080545;28;20950;-70
2021/08/31 11:54:13;;;;;;;58.47;3.33;;;21.30;1.00;;;;;;5079113;28;20450;-69
2021/08/31 11:56:41;;;;;;;58.50;2.80;;;21.20;1.00;;;;;;5077228;28;20808;-70
2021/08/31 11:59:09;;;;;;;58.07;2.70;;;21.50;1.00;;;;;;5076431;28;20489;-70
2021/08/31 12:01:37;;;;;;;58.20;2.80;;;21.80;1.00;;;;;;5078330;28;20497;-71
2021/08/31 12:04:17;;;;;;;59.30;3.10;;;22.00;1.00;;;;;;5075476;28;20483;-70
2021/08/31 12:06:44;;;;;;;58.20;2.67;;;22.30;1.00;;;;;;5077973;28;20487;-70
2021/08/31 12:09:15;;;;;;;58.83;3.50;;;22.10;1.00;;;;;;5076718;28;20553;-71
2021/08/31 12:11:42;;;;;;;58.67;3.17;;;21.80;1.00;;;;;;5076652;28;20708;-71
2021/08/31 12:14:09;;;;;;;58.70;3.37;;;21.60;1.00;;;;;;5076505;28;20514;-71
2021/08/31 12:16:37;;;;;;;58.43;3.00;;;21.20;1.00;;;;;;5076138;28;20474;-71
2021/08/31 12:19:15;;;;;;;57.97;2.63;;;21.00;1.00;;;;;;5077096;28;20522;-71
2021/08/31 12:21:42;;;;;;;58.17;2.70;;;20.80;1.00;;;;;;5076380;28;20526;-71
2021/08/31 12:24:14;;;;;;;58.33;4.30;;;20.70;1.00;;;;;;5075804;28;20499;-71
2021/08/31 12:26:41;;;;;;;58.70;3.00;;;20.50;1.00;;;;;;5076649;28;20447;-70
2021/08/31 12:29:10;;;;;;;58.10;2.90;;;20.40;1.00;;;;;;5076924;28;20471;-71
2021/08/31 12:31:38;;;;;;;57.77;2.60;;;20.30;1.00;;;;;;5074853;28;20471;-70
2021/08/31 12:34:26;;;;;;;58.17;2.60;;;20.30;1.00;;;;;;5074623;28;20823;-71
2021/08/31 12:36:53;;;;;;;58.37;2.80;;;20.40;1.00;;;;;;5074923;28;20522;-71
2021/08/31 12:39:27;;;;;;;58.63;3.57;;;20.30;1.00;;;;;;5074947;28;20526;-70
2021/08/31 12:41:55;;;;;;;57.67;2.70;;;20.20;1.00;;;;;;5074403;28;20443;-71
2021/08/31 12:44:23;;;;;;;58.00;3.00;;;20.10;1.00;;;;;;5075697;28;20490;-71
2021/08/31 12:46:52;;;;;;;58.27;3.10;;;20.00;1.00;;;;;;5075335;28;20945;-71
2021/08/31 12:49:22;;;;;;;58.40;2.90;;;19.90;1.00;;;;;;5074507;28;20538;-73